sensor_id;sensor_type;location;lat;lon;timestamp;P1;durP1;ratioP1;P2;durP2;ratioP2
42666;SDS011;28280;49.646;14.130;2023-03-16T00:05:34;4.07;;;1.80;;
42666;SDS011;28280;49.646;14.130;2023-03-16T00:15:57;4.97;;;1.70;;
42666;SDS011;28280;49.646;14.130;2023-03-16T00:26:20;2.47;;;1.80;;
42666;SDS011;28280;49.646;14.130;2023-03-16T00:36:42;3.53;;;2.05;;
42666;SDS011;28280;49.646;14.130;2023-03-16T00:47:04;3.00;;;1.80;;
42666;SDS011;28280;49.646;14.130;2023-03-16T00:57:26;5.03;;;2.17;;
42666;SDS011;28280;49.646;14.130;2023-03-16T01:07:50;4.18;;;2.10;;
42666;SDS011;28280;49.646;14.130;2023-03-16T01:18:12;3.10;;;1.98;;
42666;SDS011;28280;49.646;14.130;2023-03-16T01:28:34;3.97;;;1.92;;
42666;SDS011;28280;49.646;14.130;2023-03-16T01:38:55;4.35;;;2.45;;
42666;SDS011;28280;49.646;14.130;2023-03-16T02:10:46;3.45;;;1.85;;
42666;SDS011;28280;49.646;14.130;2023-03-16T02:31:58;4.30;;;2.10;;
42666;SDS011;28280;49.646;14.130;2023-03-16T02:42:20;4.75;;;2.25;;
42666;SDS011;28280;49.646;14.130;2023-03-16T02:52:45;3.47;;;2.05;;
42666;SDS011;28280;49.646;14.130;2023-03-16T03:03:08;3.95;;;2.08;;
42666;SDS011;28280;49.646;14.130;2023-03-16T03:13:30;3.53;;;2.15;;
42666;SDS011;28280;49.646;14.130;2023-03-16T03:23:52;5.03;;;2.40;;
42666;SDS011;28280;49.646;14.130;2023-03-16T03:34:14;5.30;;;2.30;;
42666;SDS011;28280;49.646;14.130;2023-03-16T03:44:36;4.18;;;2.30;;
42666;SDS011;28280;49.646;14.130;2023-03-16T03:54:57;3.28;;;1.85;;
42666;SDS011;28280;49.646;14.130;2023-03-16T04:05:19;3.50;;;1.90;;
42666;SDS011;28280;49.646;14.130;2023-03-16T04:15:43;4.20;;;1.88;;
42666;SDS011;28280;49.646;14.130;2023-03-16T04:26:12;4.40;;;2.00;;
42666;SDS011;28280;49.646;14.130;2023-03-16T04:36:36;4.53;;;2.05;;
42666;SDS011;28280;49.646;14.130;2023-03-16T04:47:03;5.30;;;2.30;;
42666;SDS011;28280;49.646;14.130;2023-03-16T04:57:30;4.25;;;2.08;;
42666;SDS011;28280;49.646;14.130;2023-03-16T05:07:53;4.05;;;2.30;;
42666;SDS011;28280;49.646;14.130;2023-03-16T05:18:14;3.63;;;1.85;;
42666;SDS011;28280;49.646;14.130;2023-03-16T05:28:36;4.63;;;2.05;;
42666;SDS011;28280;49.646;14.130;2023-03-16T05:39:01;4.75;;;2.17;;
42666;SDS011;28280;49.646;14.130;2023-03-16T05:49:27;3.70;;;2.42;;
42666;SDS011;28280;49.646;14.130;2023-03-16T05:59:50;3.83;;;1.90;;
42666;SDS011;28280;49.646;14.130;2023-03-16T06:10:15;4.40;;;2.13;;
42666;SDS011;28280;49.646;14.130;2023-03-16T06:20:37;3.33;;;2.33;;
42666;SDS011;28280;49.646;14.130;2023-03-16T06:30:59;4.30;;;2.13;;
42666;SDS011;28280;49.646;14.130;2023-03-16T06:41:25;3.93;;;2.00;;
42666;SDS011;28280;49.646;14.130;2023-03-16T06:51:47;4.20;;;2.40;;
42666;SDS011;28280;49.646;14.130;2023-03-16T07:02:10;5.53;;;2.42;;
42666;SDS011;28280;49.646;14.130;2023-03-16T07:12:34;4.32;;;2.30;;
42666;SDS011;28280;49.646;14.130;2023-03-16T07:22:57;4.47;;;2.25;;
42666;SDS011;28280;49.646;14.130;2023-03-16T07:33:18;5.05;;;2.40;;
42666;SDS011;28280;49.646;14.130;2023-03-16T07:43:42;3.72;;;2.20;;
42666;SDS011;28280;49.646;14.130;2023-03-16T07:54:07;3.72;;;2.15;;
42666;SDS011;28280;49.646;14.130;2023-03-16T08:04:29;6.15;;;2.35;;
42666;SDS011;28280;49.646;14.130;2023-03-16T08:14:52;4.78;;;2.45;;
42666;SDS011;28280;49.646;14.130;2023-03-16T08:25:20;3.55;;;2.17;;
42666;SDS011;28280;49.646;14.130;2023-03-16T08:35:57;4.55;;;2.15;;
42666;SDS011;28280;49.646;14.130;2023-03-16T08:46:19;4.57;;;2.55;;
42666;SDS011;28280;49.646;14.130;2023-03-16T08:56:47;3.45;;;2.20;;
42666;SDS011;28280;49.646;14.130;2023-03-16T09:07:09;4.57;;;2.80;;
42666;SDS011;28280;49.646;14.130;2023-03-16T09:17:31;4.53;;;2.40;;
42666;SDS011;28280;49.646;14.130;2023-03-16T09:27:53;6.18;;;2.33;;
42666;SDS011;28280;49.646;14.130;2023-03-16T09:38:15;4.68;;;2.20;;
42666;SDS011;28280;49.646;14.130;2023-03-16T09:48:37;7.45;;;2.40;;
42666;SDS011;28280;49.646;14.130;2023-03-16T09:58:59;2.72;;;1.92;;
42666;SDS011;28280;49.646;14.130;2023-03-16T10:09:31;4.78;;;1.98;;
42666;SDS011;28280;49.646;14.130;2023-03-16T10:20:02;6.25;;;1.70;;
42666;SDS011;28280;49.646;14.130;2023-03-16T10:30:33;3.78;;;1.90;;
42666;SDS011;28280;49.646;14.130;2023-03-16T10:40:56;3.42;;;1.73;;
42666;SDS011;28280;49.646;14.130;2023-03-16T10:51:22;2.60;;;1.50;;
42666;SDS011;28280;49.646;14.130;2023-03-16T11:01:46;3.15;;;1.70;;
42666;SDS011;28280;49.646;14.130;2023-03-16T11:12:26;5.80;;;1.90;;
42666;SDS011;28280;49.646;14.130;2023-03-16T11:22:50;4.90;;;2.05;;
42666;SDS011;28280;49.646;14.130;2023-03-16T11:33:12;3.10;;;1.80;;
42666;SDS011;28280;49.646;14.130;2023-03-16T11:54:06;5.03;;;1.75;;
42666;SDS011;28280;49.646;14.130;2023-03-16T12:25:55;2.60;;;1.45;;
42666;SDS011;28280;49.646;14.130;2023-03-16T12:57:34;2.08;;;1.45;;
42666;SDS011;28280;49.646;14.130;2023-03-16T13:18:26;4.93;;;1.98;;
42666;SDS011;28280;49.646;14.130;2023-03-16T13:28:54;3.55;;;1.70;;
42666;SDS011;28280;49.646;14.130;2023-03-16T13:39:17;2.67;;;1.52;;
42666;SDS011;28280;49.646;14.130;2023-03-16T13:49:46;3.38;;;1.60;;
42666;SDS011;28280;49.646;14.130;2023-03-16T14:00:20;2.67;;;1.85;;
42666;SDS011;28280;49.646;14.130;2023-03-16T14:10:44;2.90;;;1.60;;
42666;SDS011;28280;49.646;14.130;2023-03-16T14:21:13;2.55;;;1.80;;
42666;SDS011;28280;49.646;14.130;2023-03-16T14:31:37;3.30;;;1.58;;
42666;SDS011;28280;49.646;14.130;2023-03-16T14:42:03;3.55;;;2.33;;
42666;SDS011;28280;49.646;14.130;2023-03-16T14:52:25;3.90;;;1.73;;
42666;SDS011;28280;49.646;14.130;2023-03-16T15:02:56;3.40;;;1.63;;
42666;SDS011;28280;49.646;14.130;2023-03-16T15:13:24;4.20;;;1.70;;
42666;SDS011;28280;49.646;14.130;2023-03-16T15:24:02;3.10;;;1.73;;
42666;SDS011;28280;49.646;14.130;2023-03-16T15:34:23;4.03;;;1.85;;
42666;SDS011;28280;49.646;14.130;2023-03-16T15:44:47;3.65;;;1.90;;
42666;SDS011;28280;49.646;14.130;2023-03-16T15:55:15;3.30;;;1.75;;
42666;SDS011;28280;49.646;14.130;2023-03-16T16:05:39;2.92;;;1.73;;
42666;SDS011;28280;49.646;14.130;2023-03-16T16:16:00;4.30;;;2.00;;
42666;SDS011;28280;49.646;14.130;2023-03-16T16:26:29;2.92;;;1.60;;
42666;SDS011;28280;49.646;14.130;2023-03-16T16:37:13;2.65;;;1.48;;
42666;SDS011;28280;49.646;14.130;2023-03-16T16:47:35;3.15;;;1.77;;
42666;SDS011;28280;49.646;14.130;2023-03-16T16:57:56;2.85;;;1.42;;
42666;SDS011;28280;49.646;14.130;2023-03-16T17:08:17;2.03;;;1.38;;
42666;SDS011;28280;49.646;14.130;2023-03-16T17:18:39;3.40;;;1.27;;
42666;SDS011;28280;49.646;14.130;2023-03-16T17:29:05;2.97;;;1.42;;
42666;SDS011;28280;49.646;14.130;2023-03-16T17:39:47;2.80;;;1.42;;
42666;SDS011;28280;49.646;14.130;2023-03-16T17:50:19;3.20;;;1.42;;
42666;SDS011;28280;49.646;14.130;2023-03-16T18:00:55;3.38;;;1.80;;
42666;SDS011;28280;49.646;14.130;2023-03-16T18:11:25;2.78;;;1.52;;
42666;SDS011;28280;49.646;14.130;2023-03-16T18:21:50;2.63;;;1.60;;
42666;SDS011;28280;49.646;14.130;2023-03-16T18:32:23;2.13;;;1.38;;
42666;SDS011;28280;49.646;14.130;2023-03-16T18:42:46;3.33;;;1.50;;
42666;SDS011;28280;49.646;14.130;2023-03-16T18:53:07;2.90;;;1.75;;
42666;SDS011;28280;49.646;14.130;2023-03-16T19:03:34;3.13;;;1.50;;
42666;SDS011;28280;49.646;14.130;2023-03-16T19:13:58;3.65;;;1.40;;
42666;SDS011;28280;49.646;14.130;2023-03-16T19:24:23;3.08;;;1.85;;
42666;SDS011;28280;49.646;14.130;2023-03-16T19:34:46;2.83;;;1.90;;
42666;SDS011;28280;49.646;14.130;2023-03-16T19:45:27;3.17;;;1.80;;
42666;SDS011;28280;49.646;14.130;2023-03-16T19:55:51;5.55;;;2.78;;
42666;SDS011;28280;49.646;14.130;2023-03-16T20:06:16;4.53;;;2.53;;
42666;SDS011;28280;49.646;14.130;2023-03-16T20:16:38;3.63;;;2.25;;
42666;SDS011;28280;49.646;14.130;2023-03-16T20:27:01;9.13;;;2.70;;
42666;SDS011;28280;49.646;14.130;2023-03-16T20:37:24;5.60;;;2.63;;
42666;SDS011;28280;49.646;14.130;2023-03-16T20:47:47;5.35;;;2.80;;
42666;SDS011;28280;49.646;14.130;2023-03-16T20:58:13;3.92;;;2.20;;
42666;SDS011;28280;49.646;14.130;2023-03-16T21:08:45;6.38;;;2.65;;
42666;SDS011;28280;49.646;14.130;2023-03-16T21:19:16;5.05;;;2.63;;
42666;SDS011;28280;49.646;14.130;2023-03-16T21:29:39;6.13;;;2.53;;
42666;SDS011;28280;49.646;14.130;2023-03-16T21:40:00;5.10;;;2.28;;
42666;SDS011;28280;49.646;14.130;2023-03-16T21:50:22;4.18;;;2.20;;
42666;SDS011;28280;49.646;14.130;2023-03-16T22:00:46;4.35;;;2.53;;
42666;SDS011;28280;49.646;14.130;2023-03-16T22:11:09;6.32;;;2.38;;
42666;SDS011;28280;49.646;14.130;2023-03-16T22:31:59;3.55;;;2.20;;
42666;SDS011;28280;49.646;14.130;2023-03-16T22:42:26;5.68;;;2.70;;
42666;SDS011;28280;49.646;14.130;2023-03-16T22:52:49;3.45;;;2.05;;
42666;SDS011;28280;49.646;14.130;2023-03-16T23:03:13;3.97;;;2.20;;
42666;SDS011;28280;49.646;14.130;2023-03-16T23:13:37;4.68;;;2.38;;
42666;SDS011;28280;49.646;14.130;2023-03-16T23:23:58;4.07;;;2.30;;
42666;SDS011;28280;49.646;14.130;2023-03-16T23:34:25;4.40;;;2.20;;
42666;SDS011;28280;49.646;14.130;2023-03-16T23:44:46;4.28;;;2.33;;
42666;SDS011;28280;49.646;14.130;2023-03-16T23:55:09;3.08;;;1.92;;
